createdAt,value
2022-09-10T00:01:29.104Z,100474.44
2022-09-10T00:03:57.337Z,100474.00
2022-09-10T00:06:28.103Z,100471.28
2022-09-10T00:08:57.879Z,100469.31
2022-09-10T00:11:26.958Z,100471.66
2022-09-10T00:13:55.183Z,100470.13
2022-09-10T00:16:24.845Z,100472.47
2022-09-10T00:18:53.112Z,100469.00
2022-09-10T00:21:21.821Z,100472.09
2022-09-10T00:23:50.575Z,100473.31
2022-09-10T00:26:21.873Z,100465.50
2022-09-10T00:28:50.537Z,100467.06
2022-09-10T00:31:19.054Z,100471.38
2022-09-10T00:33:49.570Z,100471.81
2022-09-10T00:36:19.475Z,100473.44
2022-09-10T00:38:47.963Z,100478.88
2022-09-10T00:41:17.399Z,100473.38
2022-09-10T00:43:57.350Z,100466.69
2022-09-10T00:46:32.469Z,100473.25
2022-09-10T00:49:04.436Z,100465.50
2022-09-10T00:51:36.519Z,100468.59
2022-09-10T00:54:06.624Z,100466.66
2022-09-10T00:56:35.826Z,100461.88
2022-09-10T00:59:06.018Z,100456.75
2022-09-10T01:01:36.695Z,100455.53
2022-09-10T01:04:10.790Z,100458.69
2022-09-10T01:06:41.015Z,100454.06
2022-09-10T01:09:10.786Z,100455.25
2022-09-10T01:12:04.344Z,100438.91
2022-09-10T01:14:57.583Z,100440.50
2022-09-10T01:17:35.290Z,100440.53
2022-09-10T01:20:36.007Z,100437.78
2022-09-10T01:23:34.305Z,100428.44
2022-09-10T01:26:13.717Z,100431.97
2022-09-10T01:28:48.952Z,100436.25
2022-09-10T01:31:25.906Z,100435.00
2022-09-10T01:33:59.136Z,100432.72
2022-09-10T01:36:33.876Z,100429.22
2022-09-10T01:39:03.624Z,100424.91
2022-09-10T01:41:32.230Z,100427.38
2022-09-10T01:44:10.180Z,100425.00
2022-09-10T01:46:46.687Z,100424.91
2022-09-10T01:49:27.359Z,100420.22
2022-09-10T01:52:25.456Z,100407.03
2022-09-10T01:55:06.985Z,100402.38
2022-09-10T01:57:46.917Z,100409.41
2022-09-10T02:00:19.143Z,100408.22
2022-09-10T02:02:52.306Z,100410.56
2022-09-10T02:05:24.409Z,100411.78
2022-09-10T02:07:57.162Z,100407.91
2022-09-10T02:10:25.627Z,100403.25
2022-09-10T02:12:53.962Z,100405.22
2022-09-10T02:15:25.431Z,100403.28
2022-09-10T02:17:54.125Z,100401.69
2022-09-10T02:20:22.799Z,100409.41
2022-09-10T02:22:55.109Z,100402.38
2022-09-10T02:25:23.929Z,100400.03
2022-09-10T02:27:52.416Z,100402.31
2022-09-10T02:30:20.590Z,100402.28
2022-09-10T02:32:50.127Z,100405.41
2022-09-10T02:35:18.405Z,100397.59
2022-09-10T02:37:46.546Z,100400.31
2022-09-10T02:40:14.879Z,100399.09
2022-09-10T02:42:46.849Z,100394.47
2022-09-10T02:45:15.345Z,100394.03
2022-09-10T02:47:43.593Z,100394.47
2022-09-10T02:50:13.101Z,100395.94
2022-09-10T02:52:41.142Z,100388.09
2022-09-10T02:55:09.742Z,100392.00
2022-09-10T02:57:38.278Z,100392.75
2022-09-10T03:00:07.548Z,100396.66
2022-09-10T03:02:36.843Z,100393.53
2022-09-10T03:05:06.043Z,100391.13
2022-09-10T03:07:35.938Z,100392.31
2022-09-10T03:10:04.110Z,100389.59
2022-09-10T03:12:32.237Z,100383.41
2022-09-10T03:15:00.475Z,100379.53
2022-09-10T03:17:28.618Z,100379.59
2022-09-10T03:19:56.680Z,100381.16
2022-09-10T03:22:24.749Z,100379.59
2022-09-10T03:24:55.167Z,100377.28
2022-09-10T03:27:23.255Z,100378.00
2022-09-10T03:29:51.307Z,100384.22
2022-09-10T03:32:19.414Z,100391.19
2022-09-10T03:34:47.487Z,100389.28
2022-09-10T03:37:15.839Z,100394.41
2022-09-10T03:39:44.126Z,100395.16
2022-09-10T03:42:14.284Z,100394.41
2022-09-10T03:44:42.379Z,100397.91
2022-09-10T03:47:12.402Z,100396.41
2022-09-10T03:49:40.821Z,100396.81
2022-09-10T03:52:12.738Z,100403.81
2022-09-10T03:54:41.070Z,100409.25
2022-09-10T03:57:09.236Z,100411.28
2022-09-10T03:59:41.334Z,100396.88
2022-09-10T04:02:10.439Z,100402.38
2022-09-10T04:04:38.631Z,100397.03
2022-09-10T04:07:07.160Z,100403.28
2022-09-10T04:09:35.259Z,100402.94
2022-09-10T04:12:04.017Z,100406.50
2022-09-10T04:14:32.057Z,100403.00
2022-09-10T04:17:01.597Z,100408.91
2022-09-10T04:19:29.714Z,100404.66
2022-09-10T04:21:58.033Z,100412.06
2022-09-10T04:24:26.270Z,100415.25
2022-09-10T04:26:54.309Z,100407.06
2022-09-10T04:29:23.118Z,100411.38
2022-09-10T04:31:51.404Z,100410.59
2022-09-10T04:34:21.221Z,100413.31
2022-09-10T04:36:50.032Z,100412.16
2022-09-10T04:39:18.231Z,100417.59
2022-09-10T04:41:46.327Z,100408.25
2022-09-10T04:44:15.627Z,100413.31
2022-09-10T04:46:44.930Z,100418.41
2022-09-10T04:49:12.996Z,100419.56
2022-09-10T04:51:42.493Z,100427.00
2022-09-10T04:54:13.619Z,100430.09
2022-09-10T04:56:41.870Z,100421.13
2022-09-10T04:59:10.914Z,100430.13
2022-09-10T05:01:38.973Z,100425.81
2022-09-10T05:04:07.261Z,100426.59
2022-09-10T05:06:35.533Z,100428.56
2022-09-10T05:09:05.359Z,100423.84
2022-09-10T05:11:33.431Z,100424.25
2022-09-10T05:14:01.690Z,100424.66
2022-09-10T05:16:29.815Z,100429.34
2022-09-10T05:18:59.262Z,100422.31
2022-09-10T05:21:27.419Z,100426.22
2022-09-10T05:23:56.170Z,100424.66
2022-09-10T05:26:26.179Z,100426.59
2022-09-10T05:28:55.029Z,100418.44
2022-09-10T05:31:23.494Z,100408.63
2022-09-10T05:33:51.671Z,100404.72
2022-09-10T05:36:19.723Z,100406.50
2022-09-10T05:38:47.807Z,100402.56
2022-09-10T05:41:16.010Z,100394.03
2022-09-10T05:43:45.470Z,100395.06
2022-09-10T05:46:13.566Z,100402.53
2022-09-10T05:48:42.806Z,100406.22
2022-09-10T05:51:11.142Z,100405.41
2022-09-10T05:53:41.332Z,100404.28
2022-09-10T05:56:09.411Z,100402.44
2022-09-10T05:58:37.556Z,100404.69
2022-09-10T06:01:07.373Z,100412.44
2022-09-10T06:03:35.509Z,100406.97
2022-09-10T06:06:03.856Z,100411.53
2022-09-10T06:08:32.019Z,100412.09
2022-09-10T06:11:04.108Z,100413.78
2022-09-10T06:13:33.283Z,100403.19
2022-09-10T06:16:01.836Z,100410.81
2022-09-10T06:18:32.071Z,100419.66
2022-09-10T06:21:04.966Z,100414.75
2022-09-10T06:23:33.105Z,100415.06
2022-09-10T06:26:04.394Z,100417.50
2022-09-10T06:28:34.086Z,100416.00
2022-09-10T06:31:04.488Z,100418.16
2022-09-10T06:33:35.428Z,100415.06
2022-09-10T06:36:04.147Z,100417.03
2022-09-10T06:38:34.164Z,100413.69
2022-09-10T06:41:04.880Z,100421.53
2022-09-10T06:43:36.351Z,100421.00
2022-09-10T06:46:40.686Z,100429.22
2022-09-10T06:49:03.866Z,100415.63
2022-09-10T06:51:32.898Z,100412.69
2022-09-10T06:54:01.241Z,100415.59
2022-09-10T06:56:29.347Z,100415.47
2022-09-10T06:59:02.153Z,100407.03
2022-09-10T07:01:30.645Z,100416.22
2022-09-10T07:04:00.539Z,100411.97
2022-09-10T07:06:35.286Z,100407.91
2022-09-10T07:09:04.545Z,100414.34
2022-09-10T07:11:32.728Z,100403.94
2022-09-10T07:14:01.586Z,100419.97
2022-09-10T07:16:30.410Z,100420.25
2022-09-10T07:18:59.700Z,100425.69
2022-09-10T07:21:30.378Z,100424.88
2022-09-10T07:23:59.265Z,100421.06
2022-09-10T07:26:27.337Z,100417.09
2022-09-10T07:28:56.063Z,100412.88
2022-09-10T07:31:27.420Z,100415.50
2022-09-10T07:33:55.940Z,100422.19
2022-09-10T07:36:24.014Z,100423.38
2022-09-10T07:38:55.349Z,100424.22
2022-09-10T07:41:23.787Z,100428.41
2022-09-10T07:43:55.493Z,100424.28
2022-09-10T07:46:25.817Z,100428.47
2022-09-10T07:48:55.747Z,100425.75
2022-09-10T07:51:24.577Z,100418.53
2022-09-10T07:53:56.135Z,100428.50
2022-09-10T07:56:24.577Z,100425.00
2022-09-10T07:58:53.036Z,100423.81
2022-09-10T08:01:21.395Z,100419.16
2022-09-10T08:03:49.777Z,100421.72
2022-09-10T08:06:18.599Z,100413.22
2022-09-10T08:08:46.818Z,100410.47
2022-09-10T08:11:18.489Z,100414.19
2022-09-10T08:13:48.716Z,100423.31
2022-09-10T08:16:19.660Z,100408.31
2022-09-10T08:18:48.769Z,100412.41
2022-09-10T08:21:17.978Z,100410.94
2022-09-10T08:23:51.041Z,100407.97
2022-09-10T08:26:21.448Z,100414.00
2022-09-10T08:28:49.612Z,100421.53
2022-09-10T08:31:18.251Z,100424.28
2022-09-10T08:33:50.599Z,100420.59
2022-09-10T08:36:21.824Z,100415.53
2022-09-10T08:38:51.251Z,100416.03
2022-09-10T08:41:32.516Z,100407.75
2022-09-10T08:44:05.280Z,100407.13
2022-09-10T08:46:37.352Z,100407.97
2022-09-10T08:49:10.104Z,100407.75
2022-09-10T08:51:46.183Z,100414.25
2022-09-10T08:54:19.112Z,100409.63
2022-09-10T08:56:49.406Z,100401.88
2022-09-10T08:59:22.430Z,100390.34
2022-09-10T09:01:56.858Z,100393.78
2022-09-10T09:04:35.836Z,100393.84
2022-09-10T09:07:10.989Z,100390.06
2022-09-10T09:09:39.304Z,100385.19
2022-09-10T09:12:19.787Z,100381.75
2022-09-10T09:15:00.827Z,100376.56
2022-09-10T09:18:06.733Z,100364.53
2022-09-10T09:20:45.088Z,100361.06
2022-09-10T09:23:24.013Z,100360.72
2022-09-10T09:25:57.086Z,100355.34
2022-09-10T09:28:37.036Z,100353.66
2022-09-10T09:31:12.522Z,100343.56
2022-09-10T09:33:41.873Z,100343.50
2022-09-10T09:36:18.498Z,100338.28
2022-09-10T09:38:51.008Z,100332.41
2022-09-10T09:41:26.134Z,100325.22
2022-09-10T09:44:01.262Z,100323.31
2022-09-10T09:46:29.446Z,100323.94
2022-09-10T09:49:00.348Z,100316.94
2022-09-10T09:51:35.457Z,100317.78
2022-09-10T09:57:00.074Z,100319.91
2022-09-10T09:59:31.687Z,100318.44
2022-09-10T10:02:05.691Z,100318.41
2022-09-10T10:04:37.061Z,100321.06
2022-09-10T10:07:08.595Z,100324.50
2022-09-10T10:09:44.288Z,100328.47
2022-09-10T10:12:21.082Z,100324.88
2022-09-10T10:14:51.554Z,100327.78
2022-09-10T10:17:34.635Z,100319.34
2022-09-10T10:20:09.049Z,100311.31
2022-09-10T10:22:38.448Z,100313.25
2022-09-10T10:25:38.455Z,100311.69
2022-09-10T10:28:16.583Z,100306.91
2022-09-10T10:30:52.062Z,100312.16
2022-09-10T10:33:24.912Z,100313.84
2022-09-10T10:36:00.759Z,100305.59
2022-09-10T10:38:34.517Z,100307.03
2022-09-10T10:41:53.521Z,100302.19
2022-09-10T10:44:37.431Z,100302.34
2022-09-10T10:47:26.074Z,100292.28
2022-09-10T10:50:05.734Z,100278.09
2022-09-10T10:52:42.325Z,100273.06
2022-09-10T10:55:23.268Z,100277.88
2022-09-10T10:58:22.913Z,100269.00
2022-09-10T11:00:57.930Z,100272.31
2022-09-10T11:03:33.459Z,100278.34
2022-09-10T11:06:08.207Z,100283.38
2022-09-10T11:08:41.985Z,100278.34
2022-09-10T11:11:15.994Z,100276.06
2022-09-10T11:13:50.611Z,100266.69
2022-09-10T11:16:24.219Z,100272.31
2022-09-10T11:18:58.354Z,100271.66
2022-09-10T11:21:31.471Z,100268.75
2022-09-10T11:24:03.427Z,100262.28
2022-09-10T11:26:36.537Z,100254.91
2022-09-10T11:29:16.995Z,100266.63
2022-09-10T11:31:49.100Z,100255.88
2022-09-10T11:34:26.804Z,100251.56
2022-09-10T11:37:03.929Z,100256.84
2022-09-10T11:39:36.410Z,100254.13
2022-09-10T11:42:14.162Z,100261.28
2022-09-10T11:44:55.609Z,100251.41
2022-09-10T11:47:28.002Z,100266.00
2022-09-10T11:50:04.290Z,100260.22
2022-09-10T11:52:34.882Z,100263.63
2022-09-10T11:55:08.463Z,100260.25
2022-09-10T11:57:44.502Z,100260.97
2022-09-10T12:00:17.061Z,100251.78
2022-09-10T12:03:10.917Z,100241.72
2022-09-10T12:05:51.895Z,100223.69
2022-09-10T12:08:32.888Z,100217.41
2022-09-10T12:11:10.381Z,100221.34
2022-09-10T12:13:39.909Z,100213.72
2022-09-10T12:16:19.790Z,100216.19
2022-09-10T12:18:51.547Z,100214.44
2022-09-10T12:21:30.373Z,100210.31
2022-09-10T12:23:58.828Z,100205.91
2022-09-10T12:26:28.479Z,100203.56
2022-09-10T12:29:05.522Z,100203.53
2022-09-10T12:32:11.773Z,100194.72
2022-09-10T12:34:41.178Z,100195.63
2022-09-10T12:37:23.807Z,100189.56
2022-09-10T12:40:24.341Z,100182.72
2022-09-10T12:42:52.664Z,100180.50
2022-09-10T12:46:02.374Z,100184.72
2022-09-10T12:48:30.801Z,100179.53
2022-09-10T12:51:01.071Z,100174.16
2022-09-10T12:54:01.798Z,100170.16
2022-09-10T12:57:03.294Z,100162.19
2022-09-10T13:00:04.748Z,100160.09
2022-09-10T13:02:35.966Z,100161.53
2022-09-10T13:05:08.339Z,100157.78
2022-09-10T13:07:40.426Z,100153.84
2022-09-10T13:10:22.182Z,100149.06
2022-09-10T13:12:55.381Z,100141.81
2022-09-10T13:15:27.658Z,100143.19
2022-09-10T13:18:25.541Z,100142.16
2022-09-10T13:20:53.791Z,100132.94
2022-09-10T13:23:24.334Z,100135.56
2022-09-10T13:25:53.241Z,100133.53
2022-09-10T13:29:00.782Z,100145.75
2022-09-10T13:31:33.560Z,100135.78
2022-09-10T13:35:01.751Z,100136.06
2022-09-10T13:37:54.924Z,100123.06
2022-09-10T13:40:39.877Z,100129.09
2022-09-10T13:43:27.126Z,100119.84
2022-09-10T13:45:59.335Z,100112.81
2022-09-10T13:48:31.626Z,100112.84
2022-09-10T13:51:06.993Z,100111.34
2022-09-10T13:53:37.088Z,100106.06
2022-09-10T13:56:13.564Z,100114.00
2022-09-10T13:58:49.255Z,100110.16
2022-09-10T14:01:17.737Z,100109.63
2022-09-10T14:03:47.258Z,100099.00
2022-09-10T14:06:21.798Z,100097.06
2022-09-10T14:08:53.583Z,100094.19
2022-09-10T14:11:25.352Z,100097.91
2022-09-10T14:13:57.862Z,100094.66
2022-09-10T14:16:31.967Z,100086.53
2022-09-10T14:19:05.389Z,100083.06
2022-09-10T14:21:34.041Z,100083.06
2022-09-10T14:24:02.190Z,100088.38
2022-09-10T14:26:33.779Z,100089.78
2022-09-10T14:29:03.669Z,100087.34
2022-09-10T14:31:37.073Z,100090.13
2022-09-10T14:34:32.373Z,100102.41
2022-09-10T14:37:01.711Z,100098.56
2022-09-10T14:39:30.066Z,100109.53
2022-09-10T14:42:24.310Z,100094.09
2022-09-10T14:44:52.758Z,100088.63
2022-09-10T14:47:34.939Z,100085.91
2022-09-10T14:50:31.274Z,100079.53
2022-09-10T14:52:59.730Z,100082.53
2022-09-10T14:55:31.589Z,100077.28
2022-09-10T14:58:00.503Z,100076.56
2022-09-10T15:00:29.179Z,100088.16
2022-09-10T15:02:58.560Z,100086.56
2022-09-10T15:05:29.762Z,100084.28
2022-09-10T15:07:58.008Z,100081.25
2022-09-10T15:10:26.181Z,100082.66
2022-09-10T15:12:56.479Z,100085.09
2022-09-10T15:15:25.072Z,100084.09
2022-09-10T15:17:53.751Z,100081.06
2022-09-10T15:20:27.178Z,100078.72
2022-09-10T15:22:57.518Z,100083.78
2022-09-10T15:25:38.029Z,100075.31
2022-09-10T15:28:07.598Z,100072.66
2022-09-10T15:30:37.004Z,100068.38
2022-09-10T15:33:05.795Z,100069.22
2022-09-10T15:35:33.982Z,100069.28
2022-09-10T15:38:03.533Z,100063.84
2022-09-10T15:40:31.759Z,100066.19
2022-09-10T15:42:59.845Z,100059.91
2022-09-10T15:45:27.959Z,100061.03
2022-09-10T15:47:56.079Z,100051.31
2022-09-10T15:50:24.277Z,100058.03
2022-09-10T15:52:52.355Z,100054.91
2022-09-10T15:55:22.045Z,100056.06
2022-09-10T15:57:50.891Z,100052.53
2022-09-10T16:00:20.126Z,100045.13
2022-09-10T16:02:52.032Z,100053.81
2022-09-10T16:05:21.226Z,100049.63
2022-09-10T16:07:50.032Z,100038.31
2022-09-10T16:10:18.262Z,100031.72
2022-09-10T16:12:47.746Z,100028.56
2022-09-10T16:15:15.973Z,100037.56
2022-09-10T16:17:44.101Z,100047.38
2022-09-10T16:20:12.440Z,100032.56
2022-09-10T16:22:40.557Z,100034.53
2022-09-10T16:25:11.104Z,100042.34
2022-09-10T16:27:43.028Z,100037.63
2022-09-10T16:30:14.493Z,100046.59
2022-09-10T16:32:42.624Z,100041.97
2022-09-10T16:35:10.909Z,100029.84
2022-09-10T16:37:39.064Z,100033.78
2022-09-10T16:40:09.341Z,100027.53
2022-09-10T16:42:37.663Z,100026.75
2022-09-10T16:45:06.373Z,100022.84
2022-09-10T16:47:35.978Z,100031.81
2022-09-10T16:50:05.595Z,100032.63
2022-09-10T16:52:34.178Z,100031.44
2022-09-10T16:55:04.537Z,100031.06
2022-09-10T16:57:32.747Z,100029.94
2022-09-10T17:00:00.826Z,100022.91
2022-09-10T17:02:30.445Z,100020.56
2022-09-10T17:04:59.966Z,100016.66
2022-09-10T17:07:28.092Z,100020.94
2022-09-10T17:10:00.584Z,100021.72
2022-09-10T17:12:29.554Z,100015.88
2022-09-10T17:14:57.648Z,100019.78
2022-09-10T17:17:25.897Z,100014.31
2022-09-10T17:19:54.162Z,100018.59
2022-09-10T17:22:23.959Z,100022.09
2022-09-10T17:24:53.959Z,100028.31
2022-09-10T17:27:25.431Z,100026.38
2022-09-10T17:29:53.930Z,100022.50
2022-09-10T17:32:21.981Z,100029.50
2022-09-10T17:34:51.585Z,100024.84
2022-09-10T17:37:20.014Z,100024.81
2022-09-10T17:39:51.774Z,100024.81
2022-09-10T17:42:20.059Z,100027.53
2022-09-10T17:44:49.454Z,100022.88
2022-09-10T17:47:17.590Z,100020.16
2022-09-10T17:49:46.066Z,100022.88
2022-09-10T17:52:14.641Z,100022.09
2022-09-10T17:54:43.035Z,100021.72
2022-09-10T17:57:12.658Z,100022.47
2022-09-10T17:59:40.768Z,100026.00
2022-09-10T18:02:13.335Z,100024.06
2022-09-10T18:04:41.608Z,100024.44
2022-09-10T18:07:11.086Z,100022.09
2022-09-10T18:09:39.218Z,100018.19
2022-09-10T18:12:08.273Z,100010.00
2022-09-10T18:14:38.580Z,100012.72
2022-09-10T18:17:06.669Z,100014.31
2022-09-10T18:19:34.758Z,100014.31
2022-09-10T18:22:02.923Z,100015.09
2022-09-10T18:24:31.646Z,100020.97
2022-09-10T18:27:04.634Z,100017.44
2022-09-10T18:29:33.038Z,100011.19
2022-09-10T18:32:03.032Z,100012.34
2022-09-10T18:34:32.624Z,100011.97
2022-09-10T18:37:02.559Z,100022.88
2022-09-10T18:39:32.590Z,100019.00
2022-09-10T18:42:02.864Z,100030.66
2022-09-10T18:44:33.386Z,100035.75
2022-09-10T18:47:03.154Z,100037.69
2022-09-10T18:49:31.221Z,100031.81
2022-09-10T18:51:59.356Z,100029.09
2022-09-10T18:54:29.409Z,100032.22
2022-09-10T18:56:58.194Z,100031.03
2022-09-10T18:59:27.138Z,100019.72
2022-09-10T19:01:56.225Z,100015.06
2022-09-10T19:04:28.339Z,100013.88
2022-09-10T19:06:57.558Z,100014.25
2022-09-10T19:09:27.320Z,100018.16
2022-09-10T19:11:57.487Z,100015.78
2022-09-10T19:14:27.259Z,100032.56
2022-09-10T19:16:56.549Z,100084.75
2022-09-10T19:19:28.185Z,100087.84
2022-09-10T19:21:59.502Z,100065.22
2022-09-10T19:24:50.906Z,100070.69
2022-09-10T19:27:16.105Z,100069.53
2022-09-10T19:29:44.517Z,100036.78
2022-09-10T19:32:13.046Z,100060.22
2022-09-10T19:34:42.843Z,100054.75
2022-09-10T19:37:11.332Z,100045.81
2022-09-10T19:39:39.445Z,100061.00
2022-09-10T19:42:07.759Z,100032.97
2022-09-10T19:44:37.585Z,100040.38
2022-09-10T19:47:05.839Z,100042.72
2022-09-10T19:49:34.291Z,100036.09
2022-09-10T19:52:04.370Z,100028.34
2022-09-10T19:54:32.571Z,100019.41
2022-09-10T19:57:00.652Z,100013.53
2022-09-10T19:59:28.931Z,100012.78
2022-09-10T20:01:57.481Z,100011.19
2022-09-10T20:04:25.877Z,100008.06
2022-09-10T20:06:53.994Z,100000.28
2022-09-10T20:09:23.527Z,100015.06
2022-09-10T20:11:51.626Z,100031.47
2022-09-10T20:14:20.285Z,100024.06
2022-09-10T20:16:48.389Z,100027.56
2022-09-10T20:19:18.885Z,100029.50
2022-09-10T20:21:47.807Z,100022.09
2022-09-10T20:24:16.939Z,100004.19
2022-09-10T20:26:47.134Z,100017.44
2022-09-10T20:29:16.648Z,100017.44
2022-09-10T20:31:46.340Z,100029.91
2022-09-10T20:34:15.741Z,100041.97
2022-09-10T20:36:44.036Z,100045.09
2022-09-10T20:39:14.778Z,100051.72
2022-09-10T20:41:43.082Z,100058.72
2022-09-10T20:44:15.247Z,100065.72
2022-09-10T20:46:43.634Z,100065.72
2022-09-10T20:49:13.215Z,100063.00
2022-09-10T20:51:41.981Z,100078.19
2022-09-10T20:54:13.142Z,100081.31
2022-09-10T20:56:42.323Z,100075.06
2022-09-10T20:59:15.505Z,100085.59
2022-09-10T21:01:46.456Z,100095.34
2022-09-10T21:04:15.579Z,100102.34
2022-09-10T21:06:43.803Z,100105.84
2022-09-10T21:09:12.563Z,100110.91
2022-09-10T21:11:40.897Z,100113.22
2022-09-10T21:14:10.397Z,100113.25
2022-09-10T21:16:42.374Z,100116.75
2022-09-10T21:19:12.427Z,100119.09
2022-09-10T21:21:42.681Z,100127.25
2022-09-10T21:24:12.907Z,100114.78
2022-09-10T21:26:43.489Z,100123.38
2022-09-10T21:29:14.485Z,100128.03
2022-09-10T21:31:45.430Z,100119.44
2022-09-10T21:34:14.496Z,100116.34
2022-09-10T21:36:43.864Z,100106.22
2022-09-10T21:39:14.395Z,100106.97
2022-09-10T21:41:44.538Z,100097.22
2022-09-10T21:44:14.752Z,100093.31
2022-09-10T21:46:45.047Z,100076.97
2022-09-10T21:49:13.415Z,100080.88
2022-09-10T21:51:42.401Z,100083.22
2022-09-10T21:54:14.739Z,100077.72
2022-09-10T21:56:42.924Z,100067.19
2022-09-10T21:59:12.450Z,100068.38
2022-09-10T22:01:44.710Z,100064.88
2022-09-10T22:04:18.797Z,100068.00
2022-09-10T22:06:49.858Z,100072.28
2022-09-10T22:09:18.030Z,100075.81
2022-09-10T22:11:50.235Z,100077.00
2022-09-10T22:14:21.018Z,100071.91
2022-09-10T22:16:50.694Z,100071.06
2022-09-10T22:19:20.605Z,100070.66
2022-09-10T22:21:48.743Z,100060.84
2022-09-10T22:24:18.551Z,100058.53
2022-09-10T22:26:47.625Z,100057.75
2022-09-10T22:29:18.338Z,100063.22
2022-09-10T22:31:47.111Z,100052.69
2022-09-10T22:34:18.629Z,100048.41
2022-09-10T22:36:48.597Z,100059.28
2022-09-10T22:39:18.385Z,100060.81
2022-09-10T22:41:47.129Z,100058.44
2022-09-10T22:44:17.827Z,100056.47
2022-09-10T22:46:45.998Z,100048.75
2022-09-10T22:49:16.094Z,100045.25
2022-09-10T22:51:45.898Z,100074.91
2022-09-10T22:54:14.614Z,100062.09
2022-09-10T22:56:44.607Z,100040.28
2022-09-10T22:59:14.778Z,100025.78
2022-09-10T23:01:47.559Z,100024.09
2022-09-10T23:04:16.093Z,100023.59
2022-09-10T23:06:45.644Z,100028.19
2022-09-10T23:09:16.473Z,100019.94
2022-09-10T23:11:45.833Z,100013.38
2022-09-10T23:14:17.940Z,100005.53
2022-09-10T23:16:48.903Z,100006.78
2022-09-10T23:19:19.330Z,100008.75
2022-09-10T23:21:51.247Z,100006.06
2022-09-10T23:24:22.363Z,100002.91
2022-09-10T23:26:50.751Z,100004.06
2022-09-10T23:29:18.937Z,100007.63
2022-09-10T23:31:47.916Z,100000.63
2022-09-10T23:34:17.791Z,100004.81
2022-09-10T23:36:47.498Z,99998.97
2022-09-10T23:39:19.887Z,100005.91
2022-09-10T23:41:48.440Z,99997.75
2022-09-10T23:44:17.505Z,100000.16
2022-09-10T23:46:45.896Z,99999.84
2022-09-10T23:49:14.069Z,100001.03
2022-09-10T23:51:42.350Z,100003.19
2022-09-10T23:54:10.976Z,100004.75
2022-09-10T23:56:40.802Z,100009.78
2022-09-10T23:59:09.431Z,100008.63
